Time;durP1;ratioP1;P1;durP2;ratioP2;P2;SDS_P1;SDS_P2;PMS_P1;PMS_P2;Temp;Humidity;BMP_temperature;BMP_pressure;BME280_temperature;BME280_humidity;BME280_pressure;Samples;Min_cycle;Max_cycle;Signal;HPM_P1;HPM_P2
2024/04/21 00:00:20;;;;;;;2.50;2.30;;;;;;;3.98;100.00;99397.72;6587133;21;20584;-81
2024/04/21 00:02:48;;;;;;;2.50;2.30;;;;;;;4.03;100.00;99391.03;6544415;21;20228;-81
2024/04/21 00:05:16;;;;;;;2.87;2.57;;;;;;;4.09;100.00;99398.28;6544027;21;20231;-82
2024/04/21 00:07:44;;;;;;;2.60;2.40;;;;;;;4.08;100.00;99386.84;6587478;21;20305;-83
2024/04/21 00:10:12;;;;;;;3.00;2.80;;;;;;;4.16;100.00;99388.56;6631454;21;20324;-82
2024/04/21 00:12:41;;;;;;;2.73;2.53;;;;;;;4.12;100.00;99389.94;6586718;21;20318;-82
2024/04/21 00:15:15;;;;;;;2.87;2.67;;;;;;;4.03;100.00;99389.22;6549138;21;20332;-81
2024/04/21 00:17:43;;;;;;;3.10;2.80;;;;;;;4.04;100.00;99385.56;6587552;21;20794;-81
2024/04/21 00:20:13;;;;;;;2.90;2.70;;;;;;;3.93;100.00;99384.19;6586465;21;20224;-83
2024/04/21 00:22:41;;;;;;;3.10;2.77;;;;;;;3.96;100.00;99383.84;6586585;21;20232;-82
2024/04/21 00:25:10;;;;;;;3.00;2.80;;;;;;;4.01;100.00;99387.78;6585792;21;20236;-83
2024/04/21 00:27:39;;;;;;;3.00;2.80;;;;;;;3.99;100.00;99382.63;6586688;21;20255;-82
2024/04/21 00:30:10;;;;;;;3.00;2.80;;;;;;;3.94;100.00;99385.00;6587114;21;20697;-82
2024/04/21 00:32:39;;;;;;;3.60;2.50;;;;;;;3.94;100.00;99382.38;6587043;21;20248;-82
2024/04/21 00:35:07;;;;;;;3.17;2.90;;;;;;;3.91;100.00;99386.22;6587180;21;20232;-82
2024/04/21 00:37:35;;;;;;;3.83;2.80;;;;;;;3.99;100.00;99380.00;6586732;21;20286;-83
2024/04/21 00:40:05;;;;;;;3.27;3.00;;;;;;;3.87;100.00;99379.59;6632089;21;20524;-83
2024/04/21 00:42:34;;;;;;;2.87;2.67;;;;;;;3.73;100.00;99376.97;6587077;21;20681;-84
2024/04/21 00:45:02;;;;;;;3.23;3.03;;;;;;;3.82;100.00;99374.06;6630985;21;20228;-81
2024/04/21 00:47:30;;;;;;;3.27;3.07;;;;;;;3.64;100.00;99367.47;6543981;21;20231;-82
2024/04/21 00:49:58;;;;;;;3.10;2.90;;;;;;;3.62;100.00;99374.78;6587059;21;20231;-82
2024/04/21 00:52:26;;;;;;;3.67;2.90;;;;;;;3.61;100.00;99373.13;6586724;21;20712;-84
2024/04/21 00:54:54;;;;;;;3.20;2.90;;;;;;;3.59;100.00;99372.50;6587151;21;20228;-81
2024/04/21 00:57:22;;;;;;;3.37;3.07;;;;;;;3.50;100.00;99369.06;6543231;21;20236;-81
2024/04/21 00:59:51;;;;;;;3.77;3.43;;;;;;;3.52;100.00;99372.38;6543899;21;20346;-82
2024/04/21 01:02:19;;;;;;;3.47;3.17;;;;;;;3.46;100.00;99373.09;6586091;21;20338;-81
2024/04/21 01:04:48;;;;;;;3.50;3.20;;;;;;;3.46;100.00;99381.03;6586393;21;20224;-81
2024/04/21 01:07:16;;;;;;;3.57;3.27;;;;;;;3.49;100.00;99368.28;6544325;21;20287;-81
2024/04/21 01:09:44;;;;;;;3.70;3.40;;;;;;;3.49;100.00;99370.94;6584787;21;20236;-80
2024/04/21 01:12:12;;;;;;;3.63;3.33;;;;;;;3.50;100.00;99371.72;6627775;21;20302;-80
2024/04/21 01:14:39;;;;;;;3.33;3.03;;;;;;;3.46;100.00;99365.97;6627749;21;20232;-79
2024/04/21 01:17:07;;;;;;;4.23;3.83;;;;;;;3.46;100.00;99373.91;6628216;21;20680;-82
2024/04/21 01:19:35;;;;;;;3.50;3.20;;;;;;;3.40;100.00;99369.38;6628328;21;20324;-80
2024/04/21 01:22:03;;;;;;;3.50;3.23;;;;;;;3.43;100.00;99368.16;6540897;21;20239;-81
2024/04/21 01:24:30;;;;;;;3.70;3.40;;;;;;;3.47;100.00;99372.91;6584372;21;20292;-80
2024/04/21 01:26:58;;;;;;;3.67;3.37;;;;;;;3.49;100.00;99376.22;6627955;21;20223;-80
2024/04/21 01:29:26;;;;;;;3.00;2.80;;;;;;;3.47;100.00;99372.91;6541097;21;20242;-80
2024/04/21 01:31:54;;;;;;;3.50;3.20;;;;;;;3.37;100.00;99369.69;6627446;21;20232;-82
2024/04/21 01:34:23;;;;;;;3.63;3.33;;;;;;;3.31;100.00;99374.91;6627922;21;20236;-83
2024/04/21 01:36:51;;;;;;;3.60;3.30;;;;;;;3.27;100.00;99376.25;6584865;21;20274;-81
2024/04/21 01:39:18;;;;;;;3.40;3.10;;;;;;;3.27;100.00;99371.78;6583845;21;20693;-82
2024/04/21 01:41:45;;;;;;;3.37;3.07;;;;;;;3.32;100.00;99371.25;6540952;21;20759;-80
2024/04/21 01:44:13;;;;;;;3.60;3.30;;;;;;;3.33;100.00;99370.25;6627845;21;20236;-81
2024/04/21 01:46:41;;;;;;;3.70;3.40;;;;;;;3.35;100.00;99365.59;6630268;21;20220;-83
2024/04/21 01:49:09;;;;;;;3.67;3.27;;;;;;;3.33;100.00;99378.19;6541788;21;20235;-79
2024/04/21 01:51:37;;;;;;;3.53;3.23;;;;;;;3.31;100.00;99366.97;6540968;21;20673;-81
2024/04/21 01:54:05;;;;;;;3.70;3.40;;;;;;;3.33;100.00;99362.28;6541745;21;20263;-81
2024/04/21 01:56:32;;;;;;;4.00;3.60;;;;;;;3.26;100.00;99351.63;6627594;21;20223;-81
2024/04/21 01:59:00;;;;;;;4.27;3.77;;;;;;;3.30;100.00;99350.25;6584183;21;20262;-80
2024/04/21 02:01:28;;;;;;;3.73;3.43;;;;;;;3.19;100.00;99344.56;6540744;21;20236;-81
2024/04/21 02:03:56;;;;;;;4.03;3.73;;;;;;;3.12;100.00;99357.69;6627965;21;20306;-79
2024/04/21 02:06:25;;;;;;;4.10;3.70;;;;;;;3.00;100.00;99352.00;6628035;21;20262;-80
2024/04/21 02:08:53;;;;;;;3.77;3.47;;;;;;;2.93;100.00;99352.88;6584242;21;20575;-81
2024/04/21 02:11:21;;;;;;;3.57;3.27;;;;;;;2.81;100.00;99349.00;6627614;21;20699;-81
2024/04/21 02:13:49;;;;;;;3.77;3.47;;;;;;;2.86;100.00;99354.59;6584290;21;20259;-81
2024/04/21 02:16:17;;;;;;;4.50;3.60;;;;;;;2.74;100.00;99353.34;6627827;21;20220;-84
2024/04/21 02:18:45;;;;;;;4.10;3.70;;;;;;;2.78;100.00;99360.75;6627582;21;20220;-80
2024/04/21 02:21:13;;;;;;;4.07;3.67;;;;;;;2.63;100.00;99354.56;6586013;21;20230;-81
2024/04/21 02:23:41;;;;;;;3.77;3.47;;;;;;;2.67;100.00;99358.50;6630142;21;20220;-79
2024/04/21 02:26:09;;;;;;;4.00;3.70;;;;;;;2.62;100.00;99366.16;6587042;21;20661;-79
2024/04/21 02:28:36;;;;;;;4.07;3.77;;;;;;;2.66;100.00;99352.41;6586313;21;20236;-79
2024/04/21 02:31:04;;;;;;;3.87;3.57;;;;;;;2.62;100.00;99347.63;6629242;21;20282;-80
2024/04/21 02:33:33;;;;;;;4.13;3.73;;;;;;;2.66;100.00;99368.28;6586596;21;20231;-85
2024/04/21 02:36:03;;;;;;;4.23;3.90;;;;;;;2.64;100.00;99354.41;6587284;21;20681;-79
2024/04/21 02:38:31;;;;;;;4.40;4.00;;;;;;;2.69;100.00;99355.72;6543173;21;20271;-80
2024/04/21 02:40:59;;;;;;;4.57;4.13;;;;;;;2.70;100.00;99360.00;6586775;21;20232;-80
2024/04/21 02:43:30;;;;;;;4.67;4.27;;;;;;;2.79;100.00;99348.38;6631953;21;20228;-83
2024/04/21 02:46:00;;;;;;;4.47;4.07;;;;;;;2.76;100.00;99359.28;6586345;21;20232;-82
2024/04/21 02:48:32;;;;;;;4.90;4.33;;;;;;;2.74;100.00;99356.00;6587319;21;20262;-80
2024/04/21 02:51:00;;;;;;;4.77;4.27;;;;;;;2.79;100.00;99362.41;6587886;21;20227;-80
2024/04/21 02:53:28;;;;;;;5.47;4.20;;;;;;;2.68;100.00;99354.88;6629148;21;20259;-80
2024/04/21 02:55:57;;;;;;;4.50;4.10;;;;;;;2.81;100.00;99362.22;6629681;21;20254;-80
2024/04/21 02:58:26;;;;;;;5.10;4.53;;;;;;;2.87;100.00;99358.88;6586518;21;20232;-80
2024/04/21 03:00:54;;;;;;;5.03;4.63;;;;;;;2.81;100.00;99364.88;6629620;21;20263;-82
2024/04/21 03:03:22;;;;;;;5.17;4.63;;;;;;;2.80;100.00;99360.59;6629412;21;20228;-81
2024/04/21 03:05:57;;;;;;;4.70;4.30;;;;;;;2.88;100.00;99357.88;6543502;21;20264;-81
2024/04/21 03:08:26;;;;;;;4.70;4.30;;;;;;;2.67;100.00;99355.88;6586100;21;20328;-85
2024/04/21 03:10:54;;;;;;;4.70;4.30;;;;;;;2.60;100.00;99357.59;6586105;21;20236;-79
2024/04/21 03:13:22;;;;;;;4.90;4.50;;;;;;;2.60;100.00;99363.69;6631263;21;20224;-81
2024/04/21 03:15:50;;;;;;;5.50;5.00;;;;;;;2.54;100.00;99347.69;6630358;21;20605;-79
2024/04/21 03:18:18;;;;;;;5.23;4.73;;;;;;;2.51;100.00;99348.06;6586013;21;20220;-80
2024/04/21 03:20:56;;;;;;;5.43;4.93;;;;;;;2.47;100.00;99346.75;6631814;21;20267;-80
2024/04/21 03:23:25;;;;;;;5.33;4.83;;;;;;;2.38;100.00;99361.03;6543552;21;20278;-80
2024/04/21 03:25:53;;;;;;;5.77;4.97;;;;;;;2.40;100.00;99359.03;6542960;21;20232;-82
2024/04/21 03:28:21;;;;;;;5.30;4.80;;;;;;;2.36;100.00;99366.47;6586096;21;20224;-83
2024/04/21 03:31:00;;;;;;;5.60;4.90;;;;;;;2.34;100.00;99378.22;6542455;21;20232;-80
2024/04/21 03:33:28;;;;;;;5.47;4.97;;;;;;;2.27;100.00;99386.03;6628770;21;20224;-80
2024/04/21 03:36:07;;;;;;;5.50;5.00;;;;;;;2.30;100.00;99382.19;6586250;21;20224;-79
2024/04/21 03:38:35;;;;;;;5.63;5.10;;;;;;;2.29;100.00;99375.28;6585621;21;20617;-83
2024/04/21 03:41:07;;;;;;;5.40;4.90;;;;;;;2.28;100.00;99377.09;6629347;21;20798;-81
2024/04/21 03:43:35;;;;;;;5.70;5.10;;;;;;;2.20;100.00;99377.94;6629759;21;20673;-82
2024/04/21 03:46:03;;;;;;;5.90;5.07;;;;;;;2.20;100.00;99380.59;6542002;21;20232;-82
2024/04/21 03:48:31;;;;;;;6.23;5.60;;;;;;;2.13;100.00;99377.00;6542316;21;20259;-81
2024/04/21 03:51:00;;;;;;;5.37;4.87;;;;;;;2.06;100.00;99388.41;6628927;21;20279;-82
2024/04/21 03:53:28;;;;;;;5.10;4.70;;;;;;;2.13;100.00;99389.38;6584817;21;20254;-82
2024/04/21 03:55:55;;;;;;;6.17;5.13;;;;;;;2.08;100.00;99384.63;6585016;21;20727;-81
2024/04/21 03:58:23;;;;;;;5.27;4.77;;;;;;;2.00;100.00;99389.94;6585552;21;20235;-80
2024/04/21 04:00:51;;;;;;;5.80;5.17;;;;;;;1.95;100.00;99380.88;6585162;21;20775;-81
2024/04/21 04:03:19;;;;;;;5.70;5.20;;;;;;;1.95;100.00;99380.88;6628556;21;20270;-80
2024/04/21 04:05:49;;;;;;;6.83;5.50;;;;;;;1.95;100.00;99380.88;6628360;21;20231;-80
2024/04/21 04:08:17;;;;;;;5.63;5.13;;;;;;;1.89;100.00;99386.84;6585695;21;20747;-83
2024/04/21 04:10:45;;;;;;;7.23;5.23;;;;;;;1.88;100.00;99393.09;6585279;21;20275;-78
2024/04/21 04:13:12;;;;;;;6.00;5.30;;;;;;;1.81;100.00;99390.34;6628730;21;20228;-79
2024/04/21 04:15:40;;;;;;;5.77;5.17;;;;;;;1.84;100.00;99389.97;6630336;21;20333;-81
2024/04/21 04:18:08;;;;;;;5.80;5.27;;;;;;;1.80;100.00;99395.78;6585185;21;20311;-79
2024/04/21 04:20:36;;;;;;;5.50;5.00;;;;;;;1.78;100.00;99391.47;6630553;21;20259;-80
2024/04/21 04:23:05;;;;;;;5.80;5.23;;;;;;;1.83;100.00;99392.78;6585761;21;20274;-82
2024/04/21 04:25:32;;;;;;;6.30;5.60;;;;;;;1.81;100.00;99394.78;6627947;21;20228;-80
2024/04/21 04:28:00;;;;;;;5.50;5.00;;;;;;;1.90;100.00;99389.31;6584536;21;20236;-82
2024/04/21 04:30:28;;;;;;;6.07;5.47;;;;;;;1.91;100.00;99390.13;6628352;21;20799;-84
2024/04/21 04:32:56;;;;;;;5.80;5.23;;;;;;;1.95;100.00;99389.63;6584242;21;20240;-79
2024/04/21 04:35:24;;;;;;;5.83;5.33;;;;;;;2.05;100.00;99395.50;6585184;21;20239;-79
2024/04/21 04:37:51;;;;;;;5.77;4.80;;;;;;;2.18;100.00;99395.00;6630609;21;20766;-81
2024/04/21 04:40:22;;;;;;;5.37;4.87;;;;;;;2.28;100.00;99395.63;6543745;21;20267;-80
2024/04/21 04:42:50;;;;;;;5.63;5.10;;;;;;;2.34;100.00;99404.66;6628252;21;20224;-80
2024/04/21 04:45:19;;;;;;;5.20;4.70;;;;;;;2.46;100.00;99395.34;6631113;21;20278;-83
2024/04/21 04:47:47;;;;;;;5.50;4.87;;;;;;;2.56;100.00;99402.09;6585232;21;20216;-79
2024/04/21 04:50:16;;;;;;;4.70;4.30;;;;;;;2.73;100.00;99400.16;6627399;21;20324;-80
2024/04/21 04:52:43;;;;;;;5.07;4.67;;;;;;;2.78;100.00;99399.63;6584072;21;20299;-83
2024/04/21 04:55:11;;;;;;;5.37;4.87;;;;;;;2.85;100.00;99405.84;6584641;21;20267;-81
2024/04/21 04:57:39;;;;;;;4.90;4.37;;;;;;;2.97;100.00;99389.41;6627406;21;20333;-79
2024/04/21 05:00:08;;;;;;;4.60;4.20;;;;;;;2.95;100.00;99395.84;6628243;21;20284;-80
2024/04/21 05:02:36;;;;;;;4.40;4.00;;;;;;;2.97;100.00;99386.75;6627903;21;20743;-79
2024/04/21 05:05:05;;;;;;;6.17;4.50;;;;;;;3.13;100.00;99385.00;6627663;21;20323;-80
2024/04/21 05:07:34;;;;;;;5.63;4.53;;;;;;;3.26;100.00;99391.34;6627611;21;20684;-81
2024/04/21 05:10:02;;;;;;;4.77;4.37;;;;;;;3.29;100.00;99388.31;6584357;21;20228;-80
2024/04/21 05:12:29;;;;;;;4.77;4.30;;;;;;;3.40;100.00;99387.06;6583932;21;20247;-79
2024/04/21 05:14:57;;;;;;;4.43;4.03;;;;;;;3.50;100.00;99388.44;6584646;21;20262;-81
2024/04/21 05:17:25;;;;;;;5.03;4.30;;;;;;;3.56;100.00;99402.78;6628095;21;20310;-81
2024/04/21 05:19:54;;;;;;;5.33;4.50;;;;;;;3.61;100.00;99394.31;6584304;21;20259;-80
2024/04/21 05:22:22;;;;;;;4.47;4.07;;;;;;;3.79;100.00;99394.78;6627424;21;20236;-80
2024/04/21 05:24:50;;;;;;;5.20;4.33;;;;;;;3.87;100.00;99390.22;6584581;21;20247;-80
2024/04/21 05:27:17;;;;;;;4.57;4.17;;;;;;;4.00;100.00;99389.59;6584256;21;20270;-80
2024/04/21 05:29:46;;;;;;;4.37;3.80;;;;;;;4.06;100.00;99388.03;6584085;21;20244;-80
2024/04/21 05:32:14;;;;;;;4.33;3.93;;;;;;;4.02;100.00;99397.34;6627350;21;20333;-80
2024/04/21 05:34:42;;;;;;;4.43;4.03;;;;;;;4.10;100.00;99392.78;6584130;21;20240;-79
2024/04/21 05:37:10;;;;;;;4.47;4.00;;;;;;;4.25;100.00;99392.75;6627602;21;20661;-82
2024/04/21 05:39:38;;;;;;;4.77;3.93;;;;;;;4.30;100.00;99391.19;6628102;21;20735;-82
2024/04/21 05:42:06;;;;;;;4.43;3.90;;;;;;;4.39;100.00;99386.59;6630157;21;20224;-80
2024/04/21 05:44:34;;;;;;;4.10;3.70;;;;;;;4.46;100.00;99395.50;6627418;21;20275;-80
2024/04/21 05:47:02;;;;;;;4.23;3.83;;;;;;;4.59;100.00;99387.66;6628534;21;20224;-80
2024/04/21 05:49:30;;;;;;;5.33;3.60;;;;;;;4.69;100.00;99377.59;6627300;21;20632;-80
2024/04/21 05:51:57;;;;;;;3.73;3.30;;;;;;;4.65;100.00;99392.25;6629081;21;20216;-81
2024/04/21 05:54:25;;;;;;;3.80;3.27;;;;;;;4.85;100.00;99393.25;6629070;21;20228;-82
2024/04/21 05:56:53;;;;;;;3.40;3.10;;;;;;;4.84;100.00;99388.16;6628675;21;20273;-83
2024/04/21 05:59:23;;;;;;;3.83;3.30;;;;;;;4.78;100.00;99391.56;6628453;21;20232;-82
2024/04/21 06:01:55;;;;;;;3.40;3.13;;;;;;;4.90;100.00;99379.41;6586867;21;20300;-79
2024/04/21 06:04:23;;;;;;;3.70;3.40;;;;;;;4.87;100.00;99374.50;6629039;21;20224;-79
2024/04/21 06:06:51;;;;;;;3.57;3.27;;;;;;;4.98;100.00;99371.34;6584536;21;20228;-81
2024/04/21 06:09:19;;;;;;;3.80;3.37;;;;;;;5.00;100.00;99374.63;6630671;21;20313;-78
2024/04/21 06:11:47;;;;;;;4.13;3.20;;;;;;;5.09;100.00;99376.13;6629117;21;20275;-81
2024/04/21 06:14:15;;;;;;;3.63;3.30;;;;;;;5.09;100.00;99372.66;6628715;21;20287;-79
2024/04/21 06:16:42;;;;;;;3.80;3.10;;;;;;;5.20;100.00;99375.63;6629009;21;20224;-80
2024/04/21 06:19:10;;;;;;;3.13;2.93;;;;;;;5.28;100.00;99372.84;6541376;21;20272;-79
2024/04/21 06:21:38;;;;;;;3.17;2.87;;;;;;;5.26;100.00;99377.53;6628325;21;20258;-80
2024/04/21 06:24:06;;;;;;;3.40;3.10;;;;;;;5.40;100.00;99382.94;6584687;21;20287;-79
2024/04/21 06:26:34;;;;;;;3.77;3.30;;;;;;;5.41;100.00;99387.25;6629031;21;20260;-79
2024/04/21 06:29:05;;;;;;;3.67;3.37;;;;;;;5.50;100.00;99392.25;6546484;21;20707;-81
2024/04/21 06:31:33;;;;;;;3.60;3.30;;;;;;;5.44;100.00;99377.06;6586976;21;20279;-82
2024/04/21 06:34:00;;;;;;;3.80;3.20;;;;;;;5.54;100.00;99379.38;6586000;21;20280;-80
2024/04/21 06:36:29;;;;;;;3.97;3.33;;;;;;;5.44;100.00;99369.09;6585954;21;20259;-80
2024/04/21 06:38:56;;;;;;;4.00;3.00;;;;;;;5.54;100.00;99374.88;6585754;21;20300;-80
2024/04/21 06:41:24;;;;;;;3.40;3.10;;;;;;;5.66;100.00;99380.47;6544221;21;20271;-80
2024/04/21 06:43:52;;;;;;;4.63;3.07;;;;;;;5.72;100.00;99379.72;6588554;21;20236;-82
2024/04/21 06:46:19;;;;;;;3.30;3.00;;;;;;;5.88;100.00;99376.75;6631492;21;20301;-79
2024/04/21 06:48:47;;;;;;;4.00;3.33;;;;;;;5.93;100.00;99370.84;6587217;21;20240;-80
2024/04/21 06:51:15;;;;;;;3.00;2.70;;;;;;;5.99;100.00;99370.91;6630488;21;20221;-80
2024/04/21 06:53:42;;;;;;;2.93;2.63;;;;;;;6.06;100.00;99368.28;6632133;21;20365;-79
2024/04/21 06:56:10;;;;;;;2.60;2.40;;;;;;;5.96;100.00;99359.84;6588445;21;20224;-79
2024/04/21 06:58:38;;;;;;;2.93;2.43;;;;;;;5.90;100.00;99365.94;6587647;21;20664;-79
2024/04/21 07:01:05;;;;;;;3.10;2.60;;;;;;;5.92;100.00;99367.41;6587933;21;20295;-80
2024/04/21 07:03:35;;;;;;;2.87;2.53;;;;;;;6.08;100.00;99364.41;6588495;21;20688;-81
2024/04/21 07:06:04;;;;;;;2.87;2.53;;;;;;;6.20;100.00;99367.34;6631818;21;20275;-80
2024/04/21 07:08:31;;;;;;;3.03;2.57;;;;;;;6.34;100.00;99355.75;6545569;21;20284;-80
2024/04/21 07:10:59;;;;;;;2.33;2.13;;;;;;;6.46;100.00;99353.31;6587442;21;20224;-81
2024/04/21 07:13:28;;;;;;;3.07;2.37;;;;;;;6.38;100.00;99358.81;6545062;21;20232;-81
2024/04/21 07:15:56;;;;;;;2.60;2.03;;;;;;;6.36;100.00;99358.19;6631647;21;20228;-79
2024/04/21 07:18:25;;;;;;;2.50;2.30;;;;;;;6.47;100.00;99357.63;6587336;21;20224;-80
2024/04/21 07:20:53;;;;;;;2.10;1.90;;;;;;;6.52;100.00;99364.00;6587768;21;20232;-79
2024/04/21 07:23:22;;;;;;;2.70;2.20;;;;;;;6.65;100.00;99355.22;6545350;21;20299;-80
2024/04/21 07:25:49;;;;;;;2.30;2.10;;;;;;;6.72;100.00;99355.25;6586458;21;20236;-79
2024/04/21 07:28:17;;;;;;;2.53;2.00;;;;;;;6.64;100.00;99353.56;6631286;21;20236;-79
2024/04/21 07:30:48;;;;;;;2.50;2.23;;;;;;;6.69;100.00;99358.28;6586896;21;20266;-80
2024/04/21 07:33:15;;;;;;;2.40;2.03;;;;;;;6.73;100.00;99352.34;6584955;21;20225;-83
2024/04/21 07:35:43;;;;;;;2.40;2.20;;;;;;;6.76;100.00;99359.97;6627810;21;20345;-79
2024/04/21 07:38:12;;;;;;;2.30;2.10;;;;;;;6.76;100.00;99362.63;6585231;21;20220;-81
2024/04/21 07:40:43;;;;;;;2.17;1.90;;;;;;;6.99;100.00;99357.75;6627544;21;20333;-79
2024/04/21 07:43:11;;;;;;;2.50;2.30;;;;;;;6.68;100.00;99362.78;6630817;21;20232;-78
2024/04/21 07:45:39;;;;;;;4.03;2.30;;;;;;;6.73;100.00;99362.19;6631635;21;20270;-79
2024/04/21 07:48:08;;;;;;;3.20;2.00;;;;;;;6.56;100.00;99365.22;6586085;21;20262;-79
2024/04/21 07:50:36;;;;;;;2.20;2.00;;;;;;;6.90;100.00;99360.81;6630714;21;20284;-78
2024/04/21 07:53:04;;;;;;;2.60;2.27;;;;;;;7.27;100.00;99354.91;6544063;21;20235;-81
2024/04/21 07:55:32;;;;;;;2.60;2.10;;;;;;;7.47;100.00;99358.34;6631250;21;20228;-79
2024/04/21 07:58:01;;;;;;;2.30;2.10;;;;;;;7.55;100.00;99352.03;6630492;21;20220;-80
2024/04/21 08:00:29;;;;;;;2.80;1.90;;;;;;;7.55;100.00;99343.19;6587498;21;20220;-79
2024/04/21 08:02:57;;;;;;;2.10;1.90;;;;;;;7.43;100.00;99335.81;6631274;21;20220;-81
2024/04/21 08:05:25;;;;;;;2.33;2.00;;;;;;;7.40;100.00;99330.09;6630046;21;20276;-81
2024/04/21 08:07:53;;;;;;;3.33;3.03;;;;;;;7.21;100.00;99344.22;6542174;21;20254;-81
2024/04/21 08:10:25;;;;;;;4.03;3.63;;;;;;;7.28;100.00;99347.72;6585521;21;20267;-81
2024/04/21 08:12:54;;;;;;;14.43;9.30;;;;;;;7.40;100.00;99338.06;6628696;21;20231;-84
2024/04/21 08:15:23;;;;;;;4.63;4.23;;;;;;;7.25;100.00;99348.94;6630821;21;20259;-78
2024/04/21 08:17:51;;;;;;;3.17;2.87;;;;;;;7.45;100.00;99341.78;6585341;21;20220;-81
2024/04/21 08:20:19;;;;;;;3.13;2.50;;;;;;;7.64;100.00;99348.09;6541975;21;20233;-81
2024/04/21 08:22:49;;;;;;;3.27;2.90;;;;;;;7.88;100.00;99350.13;6625457;21;20345;-79
2024/04/21 08:25:16;;;;;;;2.90;2.70;;;;;;;8.01;100.00;99343.09;6624005;21;20224;-80
2024/04/21 08:27:44;;;;;;;3.40;3.10;;;;;;;8.15;100.00;99348.19;6583410;21;20270;-80
2024/04/21 08:30:12;;;;;;;4.60;4.20;;;;;;;8.33;100.00;99351.03;6582707;21;20233;-82
2024/04/21 08:32:40;;;;;;;2.80;2.60;;;;;;;8.34;100.00;99350.00;6583482;21;20238;-79
2024/04/21 08:35:08;;;;;;;2.60;2.40;;;;;;;8.45;100.00;99347.66;6583140;21;20264;-81
2024/04/21 08:37:35;;;;;;;4.33;2.40;;;;;;;8.20;100.00;99359.06;6583963;21;20224;-79
2024/04/21 08:40:05;;;;;;;2.83;2.63;;;;;;;8.25;100.00;99355.75;6583520;21;20329;-81
2024/04/21 08:42:37;;;;;;;2.83;2.60;;;;;;;8.20;100.00;99356.38;6584959;21;20231;-80
2024/04/21 08:45:07;;;;;;;2.40;2.20;;;;;;;8.25;100.00;99358.41;6542509;21;20783;-80
2024/04/21 08:47:35;;;;;;;2.80;2.60;;;;;;;8.23;100.00;99350.63;6628001;21;20239;-80
2024/04/21 08:50:06;;;;;;;3.37;2.60;;;;;;;8.14;100.00;99361.72;6542860;21;20232;-79
2024/04/21 08:52:33;;;;;;;2.37;2.00;;;;;;;8.35;100.00;99351.59;6628546;21;20262;-79
2024/04/21 08:55:04;;;;;;;2.17;2.07;;;;;;;8.72;100.00;99352.69;6584273;21;20231;-79
2024/04/21 08:57:35;;;;;;;2.50;2.30;;;;;;;8.97;100.00;99351.91;6628329;21;20285;-80
2024/04/21 09:00:03;;;;;;;3.37;2.60;;;;;;;8.79;100.00;99349.97;6628130;21;20342;-81
2024/04/21 09:02:31;;;;;;;2.17;1.87;;;;;;;9.06;100.00;99345.25;6541396;21;20235;-80
2024/04/21 09:04:59;;;;;;;3.07;1.90;;;;;;;9.29;100.00;99337.47;6584215;21;20217;-81
2024/04/21 09:07:34;;;;;;;2.60;1.80;;;;;;;9.10;100.00;99344.59;6625699;21;20287;-80
2024/04/21 09:10:02;;;;;;;2.50;1.90;;;;;;;8.92;100.00;99343.72;6626540;21;20232;-80
2024/04/21 09:12:31;;;;;;;1.97;1.67;;;;;;;9.16;100.00;99351.75;6627304;21;20283;-80
2024/04/21 09:15:00;;;;;;;2.83;2.20;;;;;;;9.17;100.00;99342.72;6584283;21;20235;-80
2024/04/21 09:17:28;;;;;;;3.67;3.30;;;;;;;9.04;98.86;99337.47;6627727;21;20271;-83
2024/04/21 09:19:56;;;;;;;2.80;2.30;;;;;;;9.09;99.43;99344.84;6627583;21;20228;-80
2024/04/21 09:22:25;;;;;;;2.40;2.20;;;;;;;8.61;96.56;99341.84;6627454;21;20282;-79
2024/04/21 09:24:53;;;;;;;2.53;2.33;;;;;;;9.07;100.00;99331.69;6541227;21;20228;-81
2024/04/21 09:27:25;;;;;;;2.27;2.07;;;;;;;9.48;99.93;99325.78;6626936;21;20282;-82
2024/04/21 09:29:56;;;;;;;2.00;1.80;;;;;;;9.20;98.65;99322.75;6627984;21;20235;-79
2024/04/21 09:32:25;;;;;;;2.17;1.97;;;;;;;9.09;94.82;99323.47;6586528;21;20284;-79
2024/04/21 09:34:54;;;;;;;3.07;2.50;;;;;;;9.07;95.77;99318.31;6586479;21;20236;-80
2024/04/21 09:37:22;;;;;;;2.50;2.10;;;;;;;9.08;97.85;99308.47;6588078;21;20227;-81
2024/04/21 09:39:51;;;;;;;2.73;2.20;;;;;;;9.56;99.27;99314.84;6587699;21;20659;-79
2024/04/21 09:42:21;;;;;;;3.77;2.50;;;;;;;9.49;96.57;99318.59;6627588;21;20336;-79
2024/04/21 09:44:49;;;;;;;3.23;2.20;;;;;;;9.82;94.90;99307.56;6629291;21;20223;-80
2024/04/21 09:47:19;;;;;;;2.17;1.97;;;;;;;9.74;96.53;99314.03;6586933;21;20232;-79
2024/04/21 09:49:48;;;;;;;2.53;2.20;;;;;;;9.75;92.65;99304.16;6585495;21;20232;-82
2024/04/21 09:52:15;;;;;;;2.30;2.10;;;;;;;9.98;96.20;99312.34;6586514;21;20228;-80
2024/04/21 09:54:43;;;;;;;2.80;2.30;;;;;;;9.88;94.06;99298.66;6586215;21;20258;-81
2024/04/21 09:57:18;;;;;;;2.40;2.20;;;;;;;10.19;93.55;99298.50;6586841;21;20719;-80
2024/04/21 09:59:47;;;;;;;2.00;1.90;;;;;;;9.97;88.51;99302.66;6629528;21;20560;-81
2024/04/21 10:02:26;;;;;;;2.10;1.90;;;;;;;9.82;86.41;99295.00;6586292;21;20227;-82
2024/04/21 10:05:05;;;;;;;2.10;2.00;;;;;;;9.49;86.23;99289.16;6588271;21;20254;-81
2024/04/21 10:07:38;;;;;;;4.60;4.20;;;;;;;9.86;91.70;99290.84;6628042;21;20234;-80
2024/04/21 10:10:21;;;;;;;3.63;3.07;;;;;;;9.41;88.28;99289.47;6632855;21;20239;-80
2024/04/21 10:12:54;;;;;;;4.20;3.90;;;;;;;9.52;88.23;99289.53;6588410;21;20294;-85
2024/04/21 10:15:25;;;;;;;4.00;3.60;;;;;;;9.39;86.90;99275.47;6587217;21;20294;-81
2024/04/21 10:17:56;;;;;;;3.00;2.70;;;;;;;9.26;85.36;99285.28;6543129;21;20668;-81
2024/04/21 10:20:31;;;;;;;3.50;3.20;;;;;;;9.45;85.10;99282.63;6586826;21;20228;-82
2024/04/21 10:23:04;;;;;;;3.00;2.70;;;;;;;9.40;83.61;99274.44;6588357;21;20247;-81
2024/04/21 10:25:33;;;;;;;3.40;2.80;;;;;;;9.75;84.62;99269.38;6584108;21;20306;-81
2024/04/21 10:28:07;;;;;;;2.70;2.50;;;;;;;10.00;86.28;99280.78;6584330;21;20240;-81
2024/04/21 10:30:36;;;;;;;3.63;3.33;;;;;;;10.08;83.21;99267.09;6585474;21;20227;-81
2024/04/21 10:33:09;;;;;;;4.63;4.23;;;;;;;9.83;81.58;99271.75;6587653;21;20236;-81
2024/04/21 10:35:39;;;;;;;3.03;2.73;;;;;;;10.23;87.48;99272.09;6545343;21;20227;-82
2024/04/21 10:38:10;;;;;;;2.83;2.47;;;;;;;9.82;80.31;99270.91;6587499;21;20258;-81
2024/04/21 10:40:44;;;;;;;3.40;2.60;;;;;;;10.33;83.57;99267.84;6587701;21;20236;-83
2024/04/21 10:43:17;;;;;;;3.47;2.70;;;;;;;10.31;82.85;99269.13;6546831;21;20263;-81
2024/04/21 10:45:44;;;;;;;2.67;2.47;;;;;;;10.61;80.21;99280.63;6543533;21;20228;-81
2024/04/21 10:48:11;;;;;;;5.30;3.03;;;;;;;10.15;83.27;99275.88;6543454;21;20236;-86
2024/04/21 10:50:41;;;;;;;3.17;2.87;;;;;;;9.82;83.24;99275.44;6544492;21;20243;-81
2024/04/21 10:53:09;;;;;;;2.70;2.50;;;;;;;10.24;85.07;99273.75;6544367;21;20231;-81
2024/04/21 10:55:36;;;;;;;3.30;2.60;;;;;;;10.16;84.80;99266.84;6586708;21;20271;-81
2024/04/21 10:58:06;;;;;;;3.53;2.50;;;;;;;10.93;84.63;99267.78;6587591;21;20228;-82
2024/04/21 11:00:37;;;;;;;2.97;2.77;;;;;;;10.81;80.19;99269.63;6585980;21;20232;-81
2024/04/21 11:03:06;;;;;;;3.30;3.00;;;;;;;10.71;82.65;99264.84;6546122;21;20267;-82
2024/04/21 11:05:50;;;;;;;3.43;2.80;;;;;;;10.53;79.70;99254.19;6586308;21;20794;-82
2024/04/21 11:08:20;;;;;;;2.70;2.47;;;;;;;10.04;79.14;99264.06;6631376;21;20267;-81
2024/04/21 11:10:50;;;;;;;2.37;2.20;;;;;;;10.46;78.69;99246.22;6585924;21;20244;-84
2024/04/21 11:13:18;;;;;;;2.70;2.50;;;;;;;10.66;77.92;99267.38;6541372;21;20259;-83
2024/04/21 11:15:46;;;;;;;2.90;2.70;;;;;;;10.20;75.02;99259.16;6584362;21;20232;-80
2024/04/21 11:18:15;;;;;;;3.00;2.70;;;;;;;10.65;77.62;99252.34;6587296;21;20232;-81
2024/04/21 11:20:42;;;;;;;3.50;3.03;;;;;;;10.53;79.50;99248.81;6587471;21;20236;-81
2024/04/21 11:23:14;;;;;;;3.93;2.90;;;;;;;11.08;76.36;99241.34;6584607;21;20244;-81
2024/04/21 11:25:41;;;;;;;3.20;2.90;;;;;;;11.14;76.61;99240.44;6587606;21;20236;-81
2024/04/21 11:28:12;;;;;;;3.47;3.00;;;;;;;11.14;81.40;99244.97;6587241;21;20231;-83
2024/04/21 11:30:40;;;;;;;3.37;3.07;;;;;;;11.34;79.12;99248.09;6582910;21;20262;-82
2024/04/21 11:33:08;;;;;;;3.30;3.00;;;;;;;10.56;76.43;99243.81;6536721;21;20243;-82
2024/04/21 11:35:37;;;;;;;3.40;3.10;;;;;;;10.88;77.92;99235.50;6581164;21;20221;-83
2024/04/21 11:38:04;;;;;;;3.70;2.97;;;;;;;11.23;76.17;99233.69;6583148;21;20228;-81
2024/04/21 11:40:37;;;;;;;3.67;3.27;;;;;;;11.36;74.57;99229.94;6581556;21;20272;-82